Hakuhomaru — JJ4011 — position and weather

sailwx.info

Track history (hours):
 
Tides and Currents Weather Stations Pressure Air Temp Water Temp Dewpoint Dewpoint Depression Visibility Wind Speed Wind Dir Waves Ship Positions

Hakuhomaru

Last reported at 2017-Feb-24 02:23 UTC. Time now 2017-Feb-26 23:55 UTC.
Position N 34°41' E 135°12'.

Length 38 m; draft 3.3 m.

Type: Tug. MMSI: 431401584.

Date/timePositionNaut miles runAvg speedWind from/ knotsBaromVisibWave heightAir tempDewpointWater temp
2017-Feb-24 02:23N 34°41' E 135°12'1 0.0
2017-Feb-22 23:33N 34°41' E 135°13'8 7.7
2017-Feb-22 22:33N 34°41' E 135°23'1 0.5
2017-Feb-22 21:29N 34°41' E 135°23'5 5.8
2017-Feb-22 20:33N 34°41' E 135°17'0 0.4
2017-Feb-22 19:33N 34°41' E 135°16'1 1.2
2017-Feb-22 18:33N 34°41' E 135°15'0 0.0
2017-Feb-22 17:33N 34°41' E 135°15'0 0.0
2017-Feb-22 16:33N 34°41' E 135°15'1 1.5
2017-Feb-22 15:33N 34°41' E 135°17'2 1.5
2017-Feb-22 14:33N 34°40' E 135°16'1 1.3
2017-Feb-22 13:32N 34°39' E 135°15'1 1.4
2017-Feb-22 12:33N 34°40' E 135°13'0 0.0
2017-Feb-22 11:33N 34°40' E 135°13'0 0.0
2017-Feb-22 10:33N 34°40' E 135°13'0 0.0
2017-Feb-22 09:33N 34°40' E 135°13'3 3.3
2017-Feb-22 08:33N 34°41' E 135°17'1 1.0
2017-Feb-22 07:33N 34°41' E 135°18'0 0.3
2017-Feb-22 06:33N 34°41' E 135°17'4 4.3
2017-Feb-22 05:33N 34°41' E 135°12'0 0.0
2017-Feb-22 04:33N 34°41' E 135°12'0 0.0
2017-Feb-22 03:33N 34°41' E 135°12'0 0.0
2017-Feb-22 02:33N 34°41' E 135°12'0 0.0
2017-Feb-22 01:33N 34°41' E 135°12'2 2.3
2017-Feb-22 00:33N 34°42' E 135°15'1 0.8
2017-Feb-21 23:33N 34°41' E 135°14'1 1.1
2017-Feb-21 22:33N 34°40' E 135°14'2 1.8
2017-Feb-21 21:33N 34°41' E 135°12'0 0.0
2017-Feb-21 20:33N 34°41' E 135°12'0 0.0
2017-Feb-21 03:14N 34°41' E 135°12'0 0.0
2017-Feb-21 02:33N 34°41' E 135°12'0 0.0
2017-Feb-21 01:33N 34°41' E 135°12'0 0.0
2017-Feb-21 00:33N 34°41' E 135°12'0 0.0
2017-Feb-20 23:33N 34°41' E 135°12'  
2017-Feb-18 06:33N 34°41' E 135°12'3 3.1
2017-Feb-18 05:33N 34°41' E 135°16'3 3.1
2017-Feb-18 04:33N 34°41' E 135°12'0 0.0
2017-Feb-18 03:33N 34°41' E 135°12'0 0.0
2017-Feb-18 02:33N 34°41' E 135°12'0 0.0
2017-Feb-18 01:33N 34°41' E 135°12'0 0.0
2017-Feb-18 00:33N 34°41' E 135°12'1 0.9
2017-Feb-17 23:33N 34°41' E 135°13'2 2.2
2017-Feb-17 22:33N 34°40' E 135°15'1 0.5
2017-Feb-17 21:33N 34°40' E 135°15'2 2.1
2017-Feb-17 20:33N 34°41' E 135°12'0 0.0
2017-Feb-17 11:16N 34°41' E 135°12'2 2.5
2017-Feb-17 10:33N 34°40' E 135°14'2 2.0
2017-Feb-17 09:33N 34°39' E 135°16'2 2.2
2017-Feb-17 08:34N 34°40' E 135°14'0 0.0
2017-Feb-17 07:33N 34°40' E 135°14'0 0.0
2017-Feb-17 06:33N 34°40' E 135°14'0 0.0
2017-Feb-17 05:34N 34°40' E 135°14'2 1.6
2017-Feb-17 04:33N 34°41' E 135°12'0 0.1
2017-Feb-17 03:33N 34°41' E 135°12'0 0.0
2017-Feb-17 02:34N 34°41' E 135°12'0 0.0
2017-Feb-17 01:34N 34°41' E 135°12'2 2.3
2017-Feb-17 00:33N 34°42' E 135°15'1 1.4
2017-Feb-16 23:34N 34°41' E 135°13'2 1.8
2017-Feb-16 22:34N 34°40' E 135°15'1 0.5
2017-Feb-16 21:33N 34°40' E 135°14'2 1.9
2017-Feb-16 20:33N 34°41' E 135°12'0 0.0
2017-Feb-16 08:25N 34°41' E 135°12'4 4.7
2017-Feb-16 07:33N 34°41' E 135°17'4 3.6
2017-Feb-16 06:33N 34°41' E 135°13'0 0.0
2017-Feb-16 05:33N 34°41' E 135°13'0 0.0
2017-Feb-16 04:33N 34°41' E 135°13'3 2.7
2017-Feb-16 03:33N 34°39' E 135°15'1 1.2
2017-Feb-16 02:33N 34°40' E 135°14'0 0.0
2017-Feb-16 01:33N 34°40' E 135°14'0 0.0
2017-Feb-16 00:33N 34°40' E 135°14'0 0.0
2017-Feb-15 23:33N 34°40' E 135°14'1 0.8
2017-Feb-15 22:33N 34°39' E 135°15'1 1.2
2017-Feb-15 21:33N 34°39' E 135°13'2 2.1
2017-Feb-15 20:33N 34°41' E 135°12'0 0.0
2017-Feb-15 09:19N 34°41' E 135°12'1 1.4
2017-Feb-15 08:33N 34°41' E 135°13'1 1.3
2017-Feb-15 07:33N 34°40' E 135°14'0 0.0
2017-Feb-15 06:32N 34°40' E 135°14'2 2.2
2017-Feb-15 05:33N 34°39' E 135°16'4 3.6
2017-Feb-15 04:33N 34°41' E 135°12'0 0.0
2017-Feb-15 03:33N 34°41' E 135°12'0 0.0
2017-Feb-15 02:33N 34°41' E 135°12'0 0.0
2017-Feb-15 01:33N 34°41' E 135°12'0 0.0
2017-Feb-15 00:33N 34°41' E 135°12'1 0.5
2017-Feb-14 23:33N 34°41' E 135°13'4 4.1
2017-Feb-14 22:33N 34°42' E 135°18'2 2.5
2017-Feb-14 21:33N 34°41' E 135°15'2 2.2
2017-Feb-14 20:33N 34°41' E 135°12'  
Track history (hours):
 
Tides and Currents Weather Stations Pressure Air Temp Water Temp Dewpoint Dewpoint Depression Visibility Wind Speed Wind Dir Waves Ship Positions

Hakuhomaru

Last reported at 2017-Feb-24 02:23 UTC. Time now 2017-Feb-26 23:55 UTC.
Position N 34°41' E 135°12'.

Length 38 m; draft 3.3 m.

Type: Tug. MMSI: 431401584.

Date/timePositionNaut miles runAvg speedWind from/ knotsBaromVisibWave heightAir tempDewpointWater temp
2017-Feb-24 02:23N 34°41' E 135°12'1 0.0
2017-Feb-22 23:33N 34°41' E 135°13'8 7.7
2017-Feb-22 22:33N 34°41' E 135°23'1 0.5
2017-Feb-22 21:29N 34°41' E 135°23'5 5.8
2017-Feb-22 20:33N 34°41' E 135°17'0 0.4
2017-Feb-22 19:33N 34°41' E 135°16'1 1.2
2017-Feb-22 18:33N 34°41' E 135°15'0 0.0
2017-Feb-22 17:33N 34°41' E 135°15'0 0.0
2017-Feb-22 16:33N 34°41' E 135°15'1 1.5
2017-Feb-22 15:33N 34°41' E 135°17'2 1.5
2017-Feb-22 14:33N 34°40' E 135°16'1 1.3
2017-Feb-22 13:32N 34°39' E 135°15'1 1.4
2017-Feb-22 12:33N 34°40' E 135°13'0 0.0
2017-Feb-22 11:33N 34°40' E 135°13'0 0.0
2017-Feb-22 10:33N 34°40' E 135°13'0 0.0
2017-Feb-22 09:33N 34°40' E 135°13'3 3.3
2017-Feb-22 08:33N 34°41' E 135°17'1 1.0
2017-Feb-22 07:33N 34°41' E 135°18'0 0.3
2017-Feb-22 06:33N 34°41' E 135°17'4 4.3
2017-Feb-22 05:33N 34°41' E 135°12'0 0.0
2017-Feb-22 04:33N 34°41' E 135°12'0 0.0
2017-Feb-22 03:33N 34°41' E 135°12'0 0.0
2017-Feb-22 02:33N 34°41' E 135°12'0 0.0
2017-Feb-22 01:33N 34°41' E 135°12'2 2.3
2017-Feb-22 00:33N 34°42' E 135°15'1 0.8
2017-Feb-21 23:33N 34°41' E 135°14'1 1.1
2017-Feb-21 22:33N 34°40' E 135°14'2 1.8
2017-Feb-21 21:33N 34°41' E 135°12'0 0.0
2017-Feb-21 20:33N 34°41' E 135°12'0 0.0
2017-Feb-21 03:14N 34°41' E 135°12'0 0.0
2017-Feb-21 02:33N 34°41' E 135°12'0 0.0
2017-Feb-21 01:33N 34°41' E 135°12'0 0.0
2017-Feb-21 00:33N 34°41' E 135°12'0 0.0
2017-Feb-20 23:33N 34°41' E 135°12'  
2017-Feb-18 06:33N 34°41' E 135°12'3 3.1
2017-Feb-18 05:33N 34°41' E 135°16'3 3.1
2017-Feb-18 04:33N 34°41' E 135°12'0 0.0
2017-Feb-18 03:33N 34°41' E 135°12'0 0.0
2017-Feb-18 02:33N 34°41' E 135°12'0 0.0
2017-Feb-18 01:33N 34°41' E 135°12'0 0.0
2017-Feb-18 00:33N 34°41' E 135°12'1 0.9
2017-Feb-17 23:33N 34°41' E 135°13'2 2.2
2017-Feb-17 22:33N 34°40' E 135°15'1 0.5
2017-Feb-17 21:33N 34°40' E 135°15'2 2.1
2017-Feb-17 20:33N 34°41' E 135°12'0 0.0
2017-Feb-17 11:16N 34°41' E 135°12'2 2.5
2017-Feb-17 10:33N 34°40' E 135°14'2 2.0
2017-Feb-17 09:33N 34°39' E 135°16'2 2.2
2017-Feb-17 08:34N 34°40' E 135°14'0 0.0
2017-Feb-17 07:33N 34°40' E 135°14'0 0.0
2017-Feb-17 06:33N 34°40' E 135°14'0 0.0
2017-Feb-17 05:34N 34°40' E 135°14'2 1.6
2017-Feb-17 04:33N 34°41' E 135°12'0 0.1
2017-Feb-17 03:33N 34°41' E 135°12'0 0.0
2017-Feb-17 02:34N 34°41' E 135°12'0 0.0
2017-Feb-17 01:34N 34°41' E 135°12'2 2.3
2017-Feb-17 00:33N 34°42' E 135°15'1 1.4
2017-Feb-16 23:34N 34°41' E 135°13'2 1.8
2017-Feb-16 22:34N 34°40' E 135°15'1 0.5
2017-Feb-16 21:33N 34°40' E 135°14'2 1.9
2017-Feb-16 20:33N 34°41' E 135°12'0 0.0
2017-Feb-16 08:25N 34°41' E 135°12'4 4.7
2017-Feb-16 07:33N 34°41' E 135°17'4 3.6
2017-Feb-16 06:33N 34°41' E 135°13'0 0.0
2017-Feb-16 05:33N 34°41' E 135°13'0 0.0
2017-Feb-16 04:33N 34°41' E 135°13'3 2.7
2017-Feb-16 03:33N 34°39' E 135°15'1 1.2
2017-Feb-16 02:33N 34°40' E 135°14'0 0.0
2017-Feb-16 01:33N 34°40' E 135°14'0 0.0
2017-Feb-16 00:33N 34°40' E 135°14'0 0.0
2017-Feb-15 23:33N 34°40' E 135°14'1 0.8
2017-Feb-15 22:33N 34°39' E 135°15'1 1.2
2017-Feb-15 21:33N 34°39' E 135°13'2 2.1
2017-Feb-15 20:33N 34°41' E 135°12'0 0.0
2017-Feb-15 09:19N 34°41' E 135°12'1 1.4
2017-Feb-15 08:33N 34°41' E 135°13'1 1.3
2017-Feb-15 07:33N 34°40' E 135°14'0 0.0
2017-Feb-15 06:32N 34°40' E 135°14'2 2.2
2017-Feb-15 05:33N 34°39' E 135°16'4 3.6
2017-Feb-15 04:33N 34°41' E 135°12'0 0.0
2017-Feb-15 03:33N 34°41' E 135°12'0 0.0
2017-Feb-15 02:33N 34°41' E 135°12'0 0.0
2017-Feb-15 01:33N 34°41' E 135°12'0 0.0
2017-Feb-15 00:33N 34°41' E 135°12'1 0.5
2017-Feb-14 23:33N 34°41' E 135°13'4 4.1
2017-Feb-14 22:33N 34°42' E 135°18'2 2.5
2017-Feb-14 21:33N 34°41' E 135°15'2 2.2
2017-Feb-14 20:33N 34°41' E 135°12'  

Dump ship's entire track history